Time;durP1;ratioP1;P1;durP2;ratioP2;P2;SDS_P1;SDS_P2;PMS_P1;PMS_P2;Temp;Humidity;BMP_temperature;BMP_pressure;BME280_temperature;BME280_humidity;BME280_pressure;Samples;Min_cycle;Max_cycle;Signal;HPM_P1;HPM_P2
2024/01/10 00:01:49;;;;;;;2.17;2.07;;;-4.40;98.20;;;;;;6149890;23;20503;-77
2024/01/10 00:04:16;;;;;;;2.13;2.03;;;-4.40;98.20;;;;;;6166128;23;20818;-76
2024/01/10 00:06:43;;;;;;;2.10;2.00;;;-4.40;98.20;;;;;;6151692;23;21032;-76
2024/01/10 00:09:10;;;;;;;2.20;2.10;;;-4.40;98.20;;;;;;6165133;23;20419;-76
2024/01/10 00:11:39;;;;;;;2.10;2.00;;;-4.40;98.20;;;;;;6153142;23;20890;-76
2024/01/10 00:14:06;;;;;;;2.20;2.10;;;-4.50;98.20;;;;;;6164732;23;20439;-77
2024/01/10 00:16:33;;;;;;;2.30;2.20;;;-4.50;98.20;;;;;;6154353;23;20448;-76
2024/01/10 00:18:59;;;;;;;2.10;2.00;;;-4.50;98.20;;;;;;6173239;23;20411;-77
2024/01/10 00:21:26;;;;;;;2.20;2.10;;;-4.50;98.20;;;;;;6154559;23;20768;-76
2024/01/10 00:23:53;;;;;;;2.20;2.10;;;-4.50;98.20;;;;;;6161143;23;20436;-76
2024/01/10 00:26:20;;;;;;;2.00;1.90;;;-4.50;98.20;;;;;;6156193;23;20449;-76
2024/01/10 00:28:48;;;;;;;2.10;2.00;;;-4.50;98.20;;;;;;6159472;23;20416;-76
2024/01/10 00:31:14;;;;;;;2.10;2.00;;;-4.50;98.20;;;;;;6157281;23;20449;-76
2024/01/10 00:33:41;;;;;;;2.10;2.00;;;-4.50;98.20;;;;;;6159205;23;20462;-76
2024/01/10 00:36:08;;;;;;;2.20;2.10;;;-4.60;98.20;;;;;;6159349;23;20467;-77
2024/01/10 00:38:35;;;;;;;2.20;2.10;;;-4.60;98.20;;;;;;6158692;23;20427;-76
2024/01/10 00:41:02;;;;;;;2.10;2.00;;;-4.70;98.20;;;;;;6160459;23;20741;-76
2024/01/10 00:43:29;;;;;;;2.10;2.00;;;-4.70;98.20;;;;;;6156360;23;20521;-76
2024/01/10 00:45:57;;;;;;;2.10;2.00;;;-4.80;98.20;;;;;;6161754;23;20411;-76
2024/01/10 00:48:24;;;;;;;2.20;2.10;;;-4.80;98.20;;;;;;6154759;23;20416;-77
2024/01/10 00:50:50;;;;;;;2.20;2.10;;;-4.80;98.20;;;;;;6163667;23;20426;-77
2024/01/10 00:53:17;;;;;;;2.30;2.20;;;-4.80;98.20;;;;;;6154081;23;20428;-76
2024/01/10 00:55:43;;;;;;;2.10;2.00;;;-4.90;98.20;;;;;;6180268;23;20200;-76
2024/01/10 00:58:10;;;;;;;2.20;2.10;;;-4.90;98.20;;;;;;6163537;23;20443;-77
2024/01/10 01:00:37;;;;;;;2.20;2.10;;;-4.90;98.20;;;;;;6181045;23;20423;-76
2024/01/10 01:03:07;;;;;;;2.30;2.20;;;-4.90;98.20;;;;;;6138595;23;20452;-76
2024/01/10 01:05:34;;;;;;;2.17;2.07;;;-4.90;98.20;;;;;;6180106;23;20923;-76
2024/01/10 01:08:00;;;;;;;2.30;2.13;;;-4.90;98.20;;;;;;6139277;23;20823;-76
2024/01/10 01:10:27;;;;;;;2.30;2.10;;;-5.00;98.20;;;;;;6179804;23;20435;-76
2024/01/10 01:12:54;;;;;;;2.30;2.20;;;-5.00;98.20;;;;;;6139180;23;20456;-76
2024/01/10 01:15:21;;;;;;;2.20;2.10;;;-5.00;98.20;;;;;;6180459;23;20464;-76
2024/01/10 01:17:47;;;;;;;2.20;2.10;;;-5.00;98.20;;;;;;6139291;23;20468;-76
2024/01/10 01:20:16;;;;;;;2.20;2.10;;;-5.00;98.20;;;;;;6180318;23;20420;-77
2024/01/10 01:22:42;;;;;;;2.40;2.20;;;-5.10;98.20;;;;;;6139849;23;20540;-77
2024/01/10 01:25:10;;;;;;;2.20;2.10;;;-5.10;98.20;;;;;;6179347;23;20758;-76
2024/01/10 01:27:36;;;;;;;2.30;2.20;;;-5.10;98.20;;;;;;6141736;23;20455;-77
2024/01/10 01:30:04;;;;;;;2.20;2.10;;;-5.10;98.20;;;;;;6178627;23;20494;-77
2024/01/10 01:32:33;;;;;;;2.27;2.10;;;-5.10;98.20;;;;;;6144485;23;20541;-76
2024/01/10 01:35:00;;;;;;;4.73;4.43;;;-5.10;98.20;;;;;;6177585;23;20572;-77
2024/01/10 01:37:28;;;;;;;2.30;2.20;;;-5.10;98.20;;;;;;6142977;23;20499;-77
2024/01/10 01:39:56;;;;;;;2.60;2.40;;;-5.10;98.20;;;;;;6176385;23;20416;-76
2024/01/10 01:42:22;;;;;;;2.20;2.10;;;-5.20;98.20;;;;;;6147028;23;21054;-76
2024/01/10 01:44:49;;;;;;;2.20;2.10;;;-5.20;98.20;;;;;;6176219;23;20436;-76
2024/01/10 01:47:16;;;;;;;2.20;2.10;;;-5.20;98.20;;;;;;6145632;23;20470;-77
2024/01/10 01:49:44;;;;;;;2.20;2.10;;;-5.30;98.20;;;;;;6173718;23;20419;-76
2024/01/10 01:52:11;;;;;;;2.50;2.30;;;-5.30;98.20;;;;;;6147013;23;20985;-76
2024/01/10 01:54:39;;;;;;;2.20;2.10;;;-5.30;98.20;;;;;;6172420;23;20944;-76
2024/01/10 01:57:10;;;;;;;2.50;2.30;;;-5.30;98.20;;;;;;6147409;23;20471;-77
2024/01/10 01:59:37;;;;;;;3.13;2.83;;;-5.40;98.20;;;;;;6172712;23;20453;-77
2024/01/10 02:02:05;;;;;;;2.30;2.20;;;-5.40;98.20;;;;;;6146937;23;21001;-77
2024/01/10 02:04:32;;;;;;;2.47;2.30;;;-5.40;98.20;;;;;;6170319;23;20443;-76
2024/01/10 02:07:00;;;;;;;2.30;2.10;;;-5.50;98.20;;;;;;6149014;23;20445;-76
2024/01/10 02:09:27;;;;;;;2.20;2.10;;;-5.50;98.20;;;;;;6170238;23;20905;-77
2024/01/10 02:11:59;;;;;;;2.23;2.10;;;-5.50;98.20;;;;;;6150193;23;20448;-76
2024/01/10 02:14:27;;;;;;;2.20;2.10;;;-5.50;98.20;;;;;;6169310;23;20466;-77
2024/01/10 02:16:54;;;;;;;2.20;2.10;;;-5.50;98.20;;;;;;6149919;23;20989;-78
2024/01/10 02:19:23;;;;;;;2.27;2.17;;;-5.50;98.20;;;;;;6168714;23;20416;-76
2024/01/10 02:21:49;;;;;;;2.20;2.10;;;-5.50;98.20;;;;;;6150571;23;20854;-77
2024/01/10 02:24:16;;;;;;;2.20;2.10;;;-5.60;98.20;;;;;;6163557;23;20436;-77
2024/01/10 02:26:44;;;;;;;2.30;2.20;;;-5.60;98.20;;;;;;6152436;23;20496;-77
2024/01/10 02:29:11;;;;;;;2.50;2.30;;;-5.60;98.20;;;;;;6165095;23;20420;-77
2024/01/10 02:31:38;;;;;;;2.20;2.10;;;-5.60;98.20;;;;;;6153459;23;20452;-77
2024/01/10 02:34:05;;;;;;;2.30;2.10;;;-5.60;98.20;;;;;;6164998;23;20440;-76
2024/01/10 02:36:32;;;;;;;2.40;2.20;;;-5.60;98.20;;;;;;6153487;23;20821;-76
2024/01/10 02:38:58;;;;;;;2.20;2.10;;;-5.60;98.20;;;;;;6163463;23;20943;-76
2024/01/10 02:41:27;;;;;;;2.30;2.20;;;-5.60;98.20;;;;;;6155749;23;20455;-76
2024/01/10 02:43:58;;;;;;;2.27;2.17;;;-5.70;98.20;;;;;;6164224;23;20755;-77
2024/01/10 02:46:27;;;;;;;2.20;2.10;;;-5.70;98.20;;;;;;6163680;23;20516;-76
2024/01/10 02:48:57;;;;;;;2.40;2.20;;;-5.70;98.20;;;;;;6162988;23;20443;-76
2024/01/10 02:51:30;;;;;;;2.40;2.20;;;-5.70;98.20;;;;;;6155036;23;20487;-78
2024/01/10 02:53:56;;;;;;;2.60;2.40;;;-5.70;98.20;;;;;;6162293;23;20440;-77
2024/01/10 02:56:23;;;;;;;2.43;2.23;;;-5.70;98.20;;;;;;6156369;23;20449;-76
2024/01/10 02:58:53;;;;;;;2.90;2.70;;;-5.70;98.20;;;;;;6162642;23;20814;-77
2024/01/10 03:01:21;;;;;;;2.50;2.30;;;-5.70;98.20;;;;;;6163366;23;20817;-77
2024/01/10 03:03:48;;;;;;;2.50;2.30;;;-5.70;98.20;;;;;;6160457;23;20493;-76
2024/01/10 03:06:14;;;;;;;2.50;2.30;;;-5.70;98.20;;;;;;6157002;23;20527;-77
2024/01/10 03:08:41;;;;;;;2.47;2.30;;;-5.70;98.20;;;;;;6158194;23;20420;-76
2024/01/10 03:11:08;;;;;;;2.30;2.20;;;-5.80;98.20;;;;;;6159300;23;20472;-78
2024/01/10 03:13:35;;;;;;;2.43;2.23;;;-5.80;98.20;;;;;;6157563;23;20440;-78
2024/01/10 03:16:01;;;;;;;2.20;2.10;;;-5.90;98.20;;;;;;6159901;23;20416;-77
2024/01/10 03:18:30;;;;;;;2.40;2.20;;;-5.90;98.20;;;;;;6156330;23;20447;-78
2024/01/10 03:20:57;;;;;;;2.40;2.20;;;-5.90;98.20;;;;;;6171731;23;20424;-76
2024/01/10 03:23:23;;;;;;;2.40;2.23;;;-5.90;98.20;;;;;;6154774;23;20440;-76
2024/01/10 03:25:50;;;;;;;2.50;2.30;;;-5.90;98.20;;;;;;6172908;23;20420;-76
2024/01/10 03:28:18;;;;;;;2.30;2.20;;;-5.90;98.20;;;;;;6154747;23;20415;-76
2024/01/10 03:30:45;;;;;;;2.30;2.20;;;-5.90;98.20;;;;;;6179466;23;20469;-76
2024/01/10 03:33:11;;;;;;;2.30;2.20;;;-5.90;98.20;;;;;;6135403;23;20452;-77
2024/01/10 03:35:40;;;;;;;2.23;2.10;;;-6.00;98.20;;;;;;6178249;23;20454;-77
2024/01/10 03:38:06;;;;;;;2.27;2.17;;;-6.00;98.20;;;;;;6137847;23;20468;-77
2024/01/10 03:40:33;;;;;;;2.40;2.20;;;-6.00;98.20;;;;;;6189370;23;20827;-77
2024/01/10 03:43:00;;;;;;;2.50;2.30;;;-6.00;98.20;;;;;;6138978;23;20524;-77
2024/01/10 03:45:28;;;;;;;2.50;2.30;;;-6.00;98.20;;;;;;6178050;23;20423;-77
2024/01/10 03:47:55;;;;;;;2.40;2.20;;;-6.00;98.20;;;;;;6136932;23;20532;-77
2024/01/10 03:50:21;;;;;;;2.30;2.20;;;-6.00;98.20;;;;;;6179713;23;20420;-77
2024/01/10 03:52:49;;;;;;;2.40;2.20;;;-6.00;98.20;;;;;;6138529;23;20457;-76
2024/01/10 03:55:16;;;;;;;2.50;2.30;;;-6.00;98.20;;;;;;6179869;23;20436;-77
2024/01/10 03:57:43;;;;;;;2.50;2.30;;;-6.00;98.20;;;;;;6136706;23;20454;-77
2024/01/10 04:00:11;;;;;;;4.20;3.90;;;-6.00;98.20;;;;;;6178667;23;20416;-77
2024/01/10 04:02:38;;;;;;;2.23;2.13;;;-6.00;98.20;;;;;;6140739;23;20491;-76
2024/01/10 04:05:08;;;;;;;2.50;2.30;;;-6.00;98.20;;;;;;6175663;23;20502;-77
2024/01/10 04:07:34;;;;;;;2.60;2.40;;;-6.00;98.20;;;;;;6140329;23;20449;-76
2024/01/10 04:10:03;;;;;;;2.30;2.20;;;-6.00;98.20;;;;;;6176945;23;20439;-77
2024/01/10 04:12:29;;;;;;;2.50;2.30;;;-6.00;98.20;;;;;;6140596;23;20525;-77
2024/01/10 04:14:56;;;;;;;2.40;2.20;;;-6.00;98.20;;;;;;6175661;23;20414;-77
2024/01/10 04:17:23;;;;;;;2.50;2.30;;;-6.00;98.20;;;;;;6142904;23;20862;-77
2024/01/10 04:19:50;;;;;;;2.20;2.10;;;-6.00;98.20;;;;;;6174494;23;20416;-78
2024/01/10 04:22:16;;;;;;;2.50;2.30;;;-6.00;98.20;;;;;;6144523;23;20454;-77
2024/01/10 04:24:43;;;;;;;2.43;2.33;;;-6.00;98.20;;;;;;6170521;23;20443;-76
2024/01/10 04:27:11;;;;;;;2.40;2.30;;;-6.00;98.20;;;;;;6149112;23;20535;-77
2024/01/10 04:29:38;;;;;;;2.40;2.20;;;-6.00;98.20;;;;;;6171279;23;20420;-77
2024/01/10 04:32:06;;;;;;;2.50;2.30;;;-6.00;98.20;;;;;;6146954;23;20449;-78
2024/01/10 04:34:33;;;;;;;2.40;2.30;;;-6.00;98.20;;;;;;6170159;23;20442;-77
2024/01/10 04:36:59;;;;;;;2.50;2.30;;;-6.00;98.20;;;;;;6148424;23;20449;-77
2024/01/10 04:39:26;;;;;;;2.50;2.30;;;-6.00;98.20;;;;;;6168051;23;20451;-76
2024/01/10 04:41:53;;;;;;;2.50;2.30;;;-6.10;98.20;;;;;;6150094;23;20448;-78
2024/01/10 04:44:21;;;;;;;2.30;2.20;;;-6.00;98.20;;;;;;6168674;23;20442;-77
2024/01/10 04:46:48;;;;;;;2.50;2.30;;;-6.00;98.20;;;;;;6153660;23;20544;-77
2024/01/10 04:49:14;;;;;;;2.40;2.20;;;-6.00;98.20;;;;;;6171416;23;20438;-76
2024/01/10 04:51:41;;;;;;;10.70;6.20;;;-6.00;98.20;;;;;;6154438;23;20601;-77
2024/01/10 04:56:38;;;;;;;2.47;2.27;;;-6.00;98.20;;;;;;6192981;23;20867;-78
2024/01/10 04:59:06;;;;;;;2.43;2.23;;;-6.00;98.20;;;;;;6208777;23;20453;-77
2024/01/10 05:01:34;;;;;;;2.47;2.30;;;-6.00;98.20;;;;;;6200977;23;20447;-78
2024/01/10 05:04:01;;;;;;;2.50;2.30;;;-6.00;98.20;;;;;;6189147;23;20816;-77
2024/01/10 05:06:32;;;;;;;2.40;2.20;;;-6.00;98.20;;;;;;6161952;23;20454;-76
2024/01/10 05:08:59;;;;;;;2.50;2.30;;;-6.00;98.20;;;;;;6178250;23;20416;-76
2024/01/10 05:11:26;;;;;;;2.50;2.30;;;-6.00;98.20;;;;;;6163280;23;20979;-76
2024/01/10 05:13:53;;;;;;;2.40;2.23;;;-6.00;98.20;;;;;;6176743;23;20452;-77
2024/01/10 05:16:20;;;;;;;2.40;2.20;;;-6.00;98.20;;;;;;6162902;23;20765;-77
2024/01/10 05:18:48;;;;;;;2.50;2.30;;;-6.10;98.20;;;;;;6178307;23;20503;-77
2024/01/10 05:21:20;;;;;;;2.43;2.30;;;-6.10;98.20;;;;;;6163794;23;20583;-75
2024/01/10 05:23:50;;;;;;;2.40;2.20;;;-6.10;98.20;;;;;;6186321;23;20440;-77
2024/01/10 05:26:17;;;;;;;2.43;2.23;;;-6.10;98.20;;;;;;6163478;23;20458;-77
2024/01/10 05:28:43;;;;;;;2.60;2.40;;;-6.10;98.20;;;;;;6179032;23;20418;-78
2024/01/10 05:31:10;;;;;;;2.40;2.30;;;-6.10;98.20;;;;;;6164890;23;20452;-77
2024/01/10 05:33:37;;;;;;;2.50;2.30;;;-6.10;98.20;;;;;;6178237;23;20968;-77
2024/01/10 05:36:06;;;;;;;2.50;2.30;;;-6.00;98.20;;;;;;6163029;23;20390;-77
2024/01/10 05:38:38;;;;;;;2.60;2.40;;;-6.00;98.20;;;;;;6187847;23;20519;-76
2024/01/10 05:41:06;;;;;;;2.50;2.30;;;-6.00;98.20;;;;;;6175139;23;20416;-76
2024/01/10 05:43:33;;;;;;;2.50;2.30;;;-6.00;98.20;;;;;;6178430;23;20440;-78
2024/01/10 05:46:01;;;;;;;2.50;2.30;;;-6.00;98.20;;;;;;6165398;23;20422;-75
2024/01/10 05:48:32;;;;;;;2.50;2.30;;;-6.00;98.20;;;;;;6189852;23;20416;-77
2024/01/10 05:50:59;;;;;;;2.50;2.30;;;-6.00;98.20;;;;;;6166169;23;20399;-77
2024/01/10 05:53:29;;;;;;;2.50;2.30;;;-6.00;98.20;;;;;;6178555;23;20444;-77
2024/01/10 05:55:56;;;;;;;2.50;2.30;;;-6.00;98.20;;;;;;6166875;23;20447;-78
2024/01/10 05:58:25;;;;;;;2.30;2.20;;;-6.00;98.20;;;;;;6190369;23;20661;-76
2024/01/10 06:00:51;;;;;;;2.50;2.30;;;-6.00;98.20;;;;;;6166103;23;20428;-76
2024/01/10 06:03:19;;;;;;;2.50;2.30;;;-6.00;98.20;;;;;;6179845;23;20553;-77
2024/01/10 06:05:46;;;;;;;2.40;2.20;;;-6.10;98.20;;;;;;6179565;23;20420;-77
2024/01/10 06:08:14;;;;;;;2.50;2.30;;;-6.00;98.20;;;;;;6140342;23;20775;-77
2024/01/10 06:10:44;;;;;;;2.40;2.20;;;-6.00;98.20;;;;;;6183377;23;20880;-78
2024/01/10 06:13:10;;;;;;;2.50;2.30;;;-6.00;98.20;;;;;;6163373;23;20798;-77
2024/01/10 06:15:37;;;;;;;2.40;2.20;;;-6.00;98.20;;;;;;6181245;23;20424;-77
2024/01/10 06:18:05;;;;;;;2.60;2.40;;;-6.00;98.20;;;;;;6164838;23;20444;-77
2024/01/10 06:20:32;;;;;;;2.50;2.30;;;-6.00;98.20;;;;;;6179956;23;20740;-76
2024/01/10 06:22:59;;;;;;;2.33;2.20;;;-6.00;98.20;;;;;;6164865;23;20479;-75
2024/01/10 06:25:27;;;;;;;2.30;2.20;;;-6.00;98.20;;;;;;6179950;23;20420;-76
2024/01/10 06:27:57;;;;;;;2.37;2.20;;;-6.00;98.20;;;;;;6164192;23;20451;-78
2024/01/10 06:30:24;;;;;;;2.53;2.33;;;-6.00;98.20;;;;;;6183145;23;20416;-77
2024/01/10 06:32:51;;;;;;;2.50;2.30;;;-6.00;98.20;;;;;;6164926;23;20766;-77
2024/01/10 06:35:17;;;;;;;2.20;2.10;;;-6.00;98.20;;;;;;6180706;23;20447;-77
2024/01/10 06:37:45;;;;;;;2.47;2.27;;;-6.00;98.20;;;;;;6157563;23;20448;-76
2024/01/10 06:40:23;;;;;;;2.50;2.30;;;-6.00;98.20;;;;;;6191410;23;20424;-76
2024/01/10 06:42:50;;;;;;;2.30;2.20;;;-6.00;98.20;;;;;;6168850;23;20422;-77
2024/01/10 06:45:20;;;;;;;2.37;2.20;;;-6.00;98.20;;;;;;6179596;23;20422;-77
2024/01/10 06:47:52;;;;;;;2.50;2.30;;;-6.00;98.20;;;;;;6167018;23;20452;-77
2024/01/10 06:50:20;;;;;;;2.37;2.20;;;-6.00;98.20;;;;;;6192000;23;20475;-76
2024/01/10 06:52:55;;;;;;;2.40;2.30;;;-6.00;98.20;;;;;;6171223;23;20860;-78
2024/01/10 06:55:29;;;;;;;2.30;2.20;;;-6.00;98.20;;;;;;6192011;23;20518;-77
2024/01/10 07:00:39;;;;;;;2.50;2.30;;;-6.00;98.20;;;;;;6183412;23;20432;-77
2024/01/10 07:03:06;;;;;;;2.30;2.20;;;-6.00;98.20;;;;;;6161015;23;20479;-78
2024/01/10 07:05:33;;;;;;;2.23;2.13;;;-6.00;98.20;;;;;;6179288;23;20427;-78
2024/01/10 07:08:02;;;;;;;2.20;2.10;;;-6.10;98.20;;;;;;6167396;23;20458;-77
2024/01/10 07:10:29;;;;;;;2.20;2.10;;;-6.10;98.20;;;;;;6186348;23;20415;-77
2024/01/10 07:12:56;;;;;;;2.50;2.30;;;-6.10;98.20;;;;;;6174229;23;20475;-77
2024/01/10 07:15:23;;;;;;;2.30;2.20;;;-6.10;98.20;;;;;;6188773;23;20486;-77
2024/01/10 07:17:52;;;;;;;2.20;2.10;;;-6.10;98.20;;;;;;6160851;23;20483;-77
2024/01/10 07:20:18;;;;;;;2.20;2.10;;;-6.10;98.20;;;;;;6177132;23;20535;-76
2024/01/10 07:22:45;;;;;;;2.20;2.10;;;-6.00;98.20;;;;;;6163119;23;20480;-78
2024/01/10 07:25:14;;;;;;;2.50;2.30;;;-6.10;98.20;;;;;;6176587;23;20456;-78
2024/01/10 07:27:40;;;;;;;2.40;2.20;;;-6.10;98.20;;;;;;6160442;23;20888;-77
2024/01/10 07:30:13;;;;;;;2.20;2.10;;;-6.00;98.20;;;;;;6176635;23;20416;-77
2024/01/10 07:32:40;;;;;;;2.30;2.20;;;-6.00;98.20;;;;;;6161196;23;21079;-77
2024/01/10 07:35:09;;;;;;;2.33;2.20;;;-6.00;98.20;;;;;;6176143;23;20484;-78
2024/01/10 07:37:38;;;;;;;2.40;2.20;;;-6.00;98.20;;;;;;6158738;23;21058;-75
2024/01/10 07:40:10;;;;;;;2.40;2.30;;;-6.00;98.20;;;;;;6186047;23;20454;-77
2024/01/10 07:42:39;;;;;;;2.20;2.10;;;-6.00;98.20;;;;;;6159906;23;20452;-77
2024/01/10 07:45:08;;;;;;;2.10;2.00;;;-6.00;98.20;;;;;;6176942;23;20500;-79
2024/01/10 07:47:38;;;;;;;2.20;2.10;;;-6.00;98.20;;;;;;6161429;23;20683;-77
2024/01/10 07:50:14;;;;;;;2.30;2.20;;;-6.00;98.20;;;;;;6185764;23;20447;-77
2024/01/10 07:52:45;;;;;;;2.20;2.10;;;-5.90;98.20;;;;;;6160199;23;20486;-78
2024/01/10 07:55:15;;;;;;;2.27;2.17;;;-5.90;98.20;;;;;;6187449;23;20436;-77
2024/01/10 07:57:45;;;;;;;2.30;2.20;;;-5.90;98.20;;;;;;6161299;23;20462;-76
2024/01/10 08:00:20;;;;;;;2.30;2.20;;;-5.90;98.20;;;;;;6186816;23;20548;-79
2024/01/10 08:02:47;;;;;;;2.30;2.20;;;-5.90;98.20;;;;;;6163251;23;20451;-78
2024/01/10 08:05:23;;;;;;;2.30;2.20;;;-5.90;98.20;;;;;;6190354;23;20468;-77
2024/01/10 08:07:50;;;;;;;2.30;2.20;;;-5.90;98.20;;;;;;6165409;23;20447;-79
2024/01/10 08:10:16;;;;;;;2.30;2.20;;;-5.80;98.20;;;;;;6189864;23;20419;-77
2024/01/10 08:12:44;;;;;;;2.20;2.10;;;-5.80;98.20;;;;;;6163232;23;20472;-81
2024/01/10 08:15:11;;;;;;;2.27;2.17;;;-5.80;98.20;;;;;;6190468;23;20431;-77
2024/01/10 08:17:39;;;;;;;2.20;2.10;;;-5.80;98.20;;;;;;6162436;23;20474;-76
2024/01/10 08:20:10;;;;;;;2.20;2.10;;;-5.70;98.20;;;;;;6189679;23;20887;-77
2024/01/10 08:22:38;;;;;;;2.30;2.20;;;-5.80;98.20;;;;;;6165078;23;20479;-78
2024/01/10 08:25:09;;;;;;;2.30;2.20;;;-5.70;98.20;;;;;;6179181;23;20424;-78
2024/01/10 08:27:36;;;;;;;2.30;2.20;;;-5.70;98.20;;;;;;6163856;23;20451;-77
2024/01/10 08:30:05;;;;;;;2.20;2.10;;;-5.70;98.20;;;;;;6187763;23;21055;-78
2024/01/10 08:32:31;;;;;;;2.33;2.23;;;-5.70;98.20;;;;;;6176714;23;20424;-78
2024/01/10 08:35:00;;;;;;;2.20;2.10;;;-5.60;98.20;;;;;;6178312;23;20817;-79
2024/01/10 08:37:27;;;;;;;2.20;2.10;;;-5.60;98.20;;;;;;6176836;23;20427;-77
2024/01/10 08:39:55;;;;;;;2.30;2.20;;;-5.60;98.20;;;;;;6177825;23;20454;-77
2024/01/10 08:42:22;;;;;;;2.20;2.10;;;-5.50;98.20;;;;;;6188386;23;20978;-78
2024/01/10 08:45:00;;;;;;;2.10;2.00;;;-5.50;98.20;;;;;;6178752;23;20446;-77
2024/01/10 08:47:26;;;;;;;2.20;2.10;;;-5.50;98.20;;;;;;6187814;23;20431;-78
2024/01/10 08:49:53;;;;;;;2.20;2.10;;;-5.40;98.20;;;;;;6179665;23;20426;-77
2024/01/10 08:52:20;;;;;;;2.20;2.10;;;-5.40;98.20;;;;;;6179934;23;20420;-78
2024/01/10 08:54:47;;;;;;;2.30;2.20;;;-5.30;98.20;;;;;;6188819;23;20448;-78
2024/01/10 08:57:18;;;;;;;2.30;2.17;;;-5.30;98.20;;;;;;6187932;23;20858;-80
2024/01/10 08:59:45;;;;;;;2.20;2.10;;;-5.20;98.20;;;;;;6192710;23;20435;-77
2024/01/10 09:02:11;;;;;;;2.20;2.10;;;-5.10;98.20;;;;;;6191045;23;20446;-77
2024/01/10 09:04:39;;;;;;;2.20;2.10;;;-5.00;98.20;;;;;;6178257;23;20868;-78
2024/01/10 09:07:09;;;;;;;3.33;3.13;;;-5.00;98.20;;;;;;6188550;23;20424;-77
2024/01/10 09:09:39;;;;;;;2.20;2.10;;;-4.90;98.20;;;;;;6179945;23;20411;-77
2024/01/10 09:12:07;;;;;;;2.10;2.00;;;-4.80;98.20;;;;;;6190266;23;20427;-77
2024/01/10 09:14:38;;;;;;;2.30;2.10;;;-4.70;98.20;;;;;;6181146;23;20446;-78
2024/01/10 09:17:05;;;;;;;2.20;2.10;;;-4.70;98.20;;;;;;6182046;23;20427;-78
2024/01/10 09:19:33;;;;;;;2.20;2.10;;;-4.60;98.20;;;;;;6182802;23;20458;-77
2024/01/10 09:22:02;;;;;;;2.10;2.00;;;-4.50;98.20;;;;;;6181450;23;20420;-77
2024/01/10 09:24:29;;;;;;;2.10;2.00;;;-4.50;98.20;;;;;;6184686;23;20636;-75
2024/01/10 09:26:56;;;;;;;2.00;1.90;;;-4.40;98.20;;;;;;6200064;23;20904;-77
2024/01/10 09:29:25;;;;;;;2.10;2.00;;;-4.30;98.20;;;;;;6188483;23;20422;-77
2024/01/10 09:31:54;;;;;;;2.20;2.10;;;-4.30;98.20;;;;;;6182662;23;20428;-77
2024/01/10 09:34:21;;;;;;;2.10;2.00;;;-4.20;98.20;;;;;;6181954;23;20447;-76
2024/01/10 09:36:52;;;;;;;2.10;2.00;;;-4.10;98.20;;;;;;6182099;23;20426;-77
2024/01/10 09:39:18;;;;;;;2.00;1.90;;;-4.10;98.20;;;;;;6183042;23;20824;-77
2024/01/10 09:41:50;;;;;;;2.10;2.00;;;-4.00;98.20;;;;;;6192447;23;20423;-76
2024/01/10 09:44:17;;;;;;;2.00;1.90;;;-4.00;98.20;;;;;;6183146;23;20447;-77
2024/01/10 09:46:51;;;;;;;3.23;3.03;;;-3.90;98.20;;;;;;6182803;23;20433;-77
2024/01/10 09:49:21;;;;;;;2.00;1.90;;;-3.90;98.20;;;;;;6192339;23;20523;-76
2024/01/10 09:51:50;;;;;;;2.00;1.90;;;-3.80;98.20;;;;;;6182951;23;20962;-76
2024/01/10 09:54:19;;;;;;;2.00;1.90;;;-3.80;98.20;;;;;;6190975;23;20523;-78
2024/01/10 09:56:50;;;;;;;2.10;2.00;;;-3.80;98.20;;;;;;6194114;23;20412;-77
2024/01/10 09:59:17;;;;;;;2.00;1.90;;;-3.80;98.20;;;;;;6181785;23;20956;-78
2024/01/10 10:01:44;;;;;;;2.10;2.00;;;-3.80;98.20;;;;;;6195334;23;20719;-77
2024/01/10 10:04:15;;;;;;;2.00;1.90;;;-3.80;98.20;;;;;;6182020;23;20439;-76
2024/01/10 10:06:43;;;;;;;1.90;1.80;;;-3.70;98.20;;;;;;6184283;23;20400;-76
2024/01/10 10:09:11;;;;;;;2.10;2.00;;;-3.70;98.20;;;;;;6184433;23;20791;-76
2024/01/10 10:11:38;;;;;;;2.00;1.90;;;-3.70;98.20;;;;;;6183729;23;20434;-76
2024/01/10 10:14:19;;;;;;;2.00;1.90;;;-3.60;98.20;;;;;;6195022;23;20475;-76
2024/01/10 10:16:45;;;;;;;2.00;1.90;;;-3.60;98.20;;;;;;6197971;23;20423;-75
2024/01/10 10:19:13;;;;;;;2.10;2.00;;;-3.60;98.20;;;;;;6185333;23;20454;-76
2024/01/10 10:21:40;;;;;;;2.00;1.90;;;-3.50;98.20;;;;;;6186056;23;20432;-76
2024/01/10 10:24:09;;;;;;;2.03;1.93;;;-3.50;98.20;;;;;;6183419;23;20454;-77
2024/01/10 10:26:36;;;;;;;2.00;1.90;;;-3.50;98.20;;;;;;6184370;23;20502;-76
2024/01/10 10:29:04;;;;;;;2.00;1.90;;;-3.40;98.20;;;;;;6196263;23;20511;-76
2024/01/10 10:31:31;;;;;;;2.00;1.90;;;-3.40;98.20;;;;;;6195432;23;20463;-76
2024/01/10 10:34:00;;;;;;;1.93;1.83;;;-3.40;98.20;;;;;;6185615;23;20448;-76
2024/01/10 10:36:27;;;;;;;2.20;2.10;;;-3.30;98.20;;;;;;6184227;23;20498;-77
2024/01/10 10:38:54;;;;;;;2.00;1.90;;;-3.30;98.20;;;;;;6182550;23;20464;-78
2024/01/10 10:41:22;;;;;;;2.00;1.90;;;-3.20;98.20;;;;;;6183470;23;20427;-78
2024/01/10 10:43:51;;;;;;;2.03;1.93;;;-3.20;98.20;;;;;;6183373;23;20793;-78
2024/01/10 10:46:20;;;;;;;2.00;1.90;;;-3.20;98.20;;;;;;6183343;23;20488;-78
2024/01/10 10:48:49;;;;;;;2.00;1.90;;;-3.20;98.20;;;;;;6193277;23;20401;-79
2024/01/10 10:51:19;;;;;;;1.97;1.87;;;-3.20;98.20;;;;;;6181867;23;20482;-77
2024/01/10 10:53:48;;;;;;;2.00;1.90;;;-3.10;98.20;;;;;;6182587;23;20475;-79
2024/01/10 10:56:15;;;;;;;2.00;1.90;;;-3.10;98.20;;;;;;6185044;23;20432;-79
2024/01/10 10:58:44;;;;;;;2.00;1.90;;;-3.10;98.20;;;;;;6182679;23;20959;-79
2024/01/10 11:01:14;;;;;;;2.27;2.17;;;-3.10;98.20;;;;;;6172640;22;20472;-78
2024/01/10 11:03:44;;;;;;;2.00;1.90;;;-3.00;98.20;;;;;;6173669;23;20759;-77
2024/01/10 11:06:11;;;;;;;2.00;1.90;;;-3.00;98.20;;;;;;6176378;23;20765;-77
2024/01/10 11:08:43;;;;;;;2.20;2.10;;;-3.00;98.20;;;;;;6176852;23;20523;-78
2024/01/10 11:11:22;;;;;;;1.90;1.80;;;-3.00;98.20;;;;;;6185480;23;20447;-77
2024/01/10 11:14:06;;;;;;;2.00;1.90;;;-2.90;98.20;;;;;;6186778;23;21028;-78
2024/01/10 11:17:05;;;;;;;1.90;1.80;;;-2.80;98.20;;;;;;6177314;23;20404;-77
2024/01/10 11:20:24;;;;;;;2.37;2.17;;;-2.80;98.20;;;;;;6187262;23;20455;-77
2024/01/10 11:23:09;;;;;;;2.10;2.00;;;-2.70;98.20;;;;;;6136370;23;20424;-78
2024/01/10 11:25:36;;;;;;;2.00;1.90;;;-2.60;98.20;;;;;;6186666;23;20746;-78
2024/01/10 11:28:04;;;;;;;2.00;1.90;;;-2.60;98.20;;;;;;6187291;23;21191;-78
2024/01/10 11:30:49;;;;;;;2.03;1.93;;;-2.50;98.20;;;;;;6177706;23;20506;-78
2024/01/10 11:33:20;;;;;;;2.00;1.90;;;-2.50;98.20;;;;;;6176622;23;20404;-78
2024/01/10 11:36:15;;;;;;;2.20;2.10;;;-2.40;98.20;;;;;;6175116;23;20416;-78
2024/01/10 11:38:50;;;;;;;2.10;2.00;;;-2.30;98.20;;;;;;6174735;23;20415;-78
2024/01/10 11:41:22;;;;;;;2.00;1.90;;;-2.30;98.20;;;;;;6176536;23;20451;-78
2024/01/10 11:44:19;;;;;;;2.00;1.90;;;-2.20;98.20;;;;;;6186648;23;20417;-78
2024/01/10 11:46:49;;;;;;;2.13;2.03;;;-2.20;98.20;;;;;;6159203;23;21015;-78
2024/01/10 11:49:18;;;;;;;2.07;1.97;;;-2.10;98.20;;;;;;6177016;23;20400;-78
2024/01/10 11:51:47;;;;;;;2.00;1.90;;;-2.10;98.20;;;;;;6177009;23;20807;-78
2024/01/10 11:54:37;;;;;;;2.00;1.90;;;-2.10;98.20;;;;;;6178707;23;20734;-78
2024/01/10 11:57:08;;;;;;;2.10;2.00;;;-2.00;98.20;;;;;;6179107;23;20459;-77
2024/01/10 11:59:36;;;;;;;2.00;1.90;;;-2.00;98.20;;;;;;6179610;23;20454;-78
2024/01/10 12:02:04;;;;;;;2.00;1.90;;;-2.00;98.20;;;;;;6177534;23;20527;-78
2024/01/10 12:04:33;;;;;;;2.00;1.90;;;-1.90;98.20;;;;;;6177804;23;20420;-78
2024/01/10 12:06:59;;;;;;;2.00;1.90;;;-1.90;98.20;;;;;;6180023;23;20515;-78
2024/01/10 12:09:26;;;;;;;2.00;1.90;;;-1.90;98.20;;;;;;6180306;23;20428;-78
2024/01/10 12:11:53;;;;;;;1.90;1.80;;;-1.80;98.20;;;;;;6179754;23;20420;-77
2024/01/10 12:14:21;;;;;;;1.90;1.80;;;-1.80;98.20;;;;;;6180600;23;20427;-78
2024/01/10 12:16:48;;;;;;;2.33;2.17;;;-1.70;98.20;;;;;;6176571;23;20507;-80
2024/01/10 12:19:16;;;;;;;2.00;1.90;;;-1.70;98.20;;;;;;6178526;23;20856;-78
2024/01/10 12:21:43;;;;;;;2.20;2.10;;;-1.60;98.20;;;;;;6181358;23;20931;-78
2024/01/10 12:24:13;;;;;;;1.90;1.80;;;-1.60;98.20;;;;;;6182108;23;20507;-78
2024/01/10 12:26:47;;;;;;;1.90;1.80;;;-1.50;98.20;;;;;;6182557;23;20527;-78
2024/01/10 12:29:14;;;;;;;1.97;1.87;;;-1.50;98.20;;;;;;6191268;23;20422;-78
2024/01/10 12:31:41;;;;;;;1.90;1.80;;;-1.40;98.20;;;;;;6180891;23;20444;-78
2024/01/10 12:34:10;;;;;;;1.80;1.70;;;-1.40;98.20;;;;;;6184070;23;20424;-79
2024/01/10 12:36:38;;;;;;;1.97;1.87;;;-1.30;98.20;;;;;;6182148;23;20430;-79
2024/01/10 12:39:07;;;;;;;1.90;1.80;;;-1.20;98.20;;;;;;6182786;23;20507;-79
2024/01/10 12:41:34;;;;;;;1.90;1.80;;;-1.20;98.20;;;;;;6183154;23;20448;-79
2024/01/10 12:44:03;;;;;;;2.10;2.00;;;-1.10;98.20;;;;;;6184692;23;20527;-79
2024/01/10 12:46:30;;;;;;;1.90;1.80;;;-1.10;98.20;;;;;;6190989;23;20480;-79
2024/01/10 12:49:01;;;;;;;1.87;1.77;;;-1.00;98.20;;;;;;6201625;23;20420;-80
2024/01/10 12:51:30;;;;;;;1.90;1.80;;;-0.90;98.20;;;;;;6185973;23;20436;-79
2024/01/10 12:53:59;;;;;;;1.90;1.80;;;-0.90;98.20;;;;;;6184584;23;20430;-80
2024/01/10 12:56:26;;;;;;;1.80;1.70;;;-0.80;98.20;;;;;;6184979;23;20944;-80
2024/01/10 12:58:54;;;;;;;1.80;1.70;;;-0.80;98.20;;;;;;6186025;23;20495;-79
2024/01/10 13:01:22;;;;;;;1.90;1.80;;;-0.70;98.20;;;;;;6181086;23;20563;-79